sensor_id;sensor_type;location;lat;lon;timestamp;P1;durP1;ratioP1;P2;durP2;ratioP2
819;SDS011;392;48.838;2.322;2022-10-17T00:00:26;9.30;;;8.40;;
819;SDS011;392;48.838;2.322;2022-10-17T00:02:54;9.37;;;8.47;;
819;SDS011;392;48.838;2.322;2022-10-17T00:05:22;10.10;;;8.23;;
819;SDS011;392;48.838;2.322;2022-10-17T00:07:50;9.10;;;8.20;;
819;SDS011;392;48.838;2.322;2022-10-17T00:10:17;9.57;;;8.77;;
819;SDS011;392;48.838;2.322;2022-10-17T00:12:45;8.53;;;7.73;;
819;SDS011;392;48.838;2.322;2022-10-17T00:15:14;8.37;;;7.67;;
819;SDS011;392;48.838;2.322;2022-10-17T00:17:42;8.77;;;8.07;;
819;SDS011;392;48.838;2.322;2022-10-17T00:20:12;9.13;;;7.67;;
819;SDS011;392;48.838;2.322;2022-10-17T00:22:40;9.40;;;8.50;;
819;SDS011;392;48.838;2.322;2022-10-17T00:25:08;8.20;;;7.60;;
819;SDS011;392;48.838;2.322;2022-10-17T00:27:36;9.57;;;7.87;;
819;SDS011;392;48.838;2.322;2022-10-17T00:30:05;9.07;;;7.77;;
819;SDS011;392;48.838;2.322;2022-10-17T00:32:35;9.17;;;8.37;;
819;SDS011;392;48.838;2.322;2022-10-17T00:35:03;8.60;;;7.80;;
819;SDS011;392;48.838;2.322;2022-10-17T00:37:32;8.47;;;7.60;;
819;SDS011;392;48.838;2.322;2022-10-17T00:40:00;8.10;;;7.50;;
819;SDS011;392;48.838;2.322;2022-10-17T00:42:27;9.30;;;8.40;;
819;SDS011;392;48.838;2.322;2022-10-17T00:45:16;8.50;;;7.80;;
819;SDS011;392;48.838;2.322;2022-10-17T00:47:50;8.27;;;7.63;;
819;SDS011;392;48.838;2.322;2022-10-17T00:50:21;8.17;;;7.50;;
819;SDS011;392;48.838;2.322;2022-10-17T00:52:51;8.03;;;7.43;;
819;SDS011;392;48.838;2.322;2022-10-17T00:55:22;7.90;;;7.30;;
819;SDS011;392;48.838;2.322;2022-10-17T00:57:54;7.73;;;6.60;;
819;SDS011;392;48.838;2.322;2022-10-17T01:00:23;9.33;;;8.50;;
819;SDS011;392;48.838;2.322;2022-10-17T01:02:50;8.17;;;7.43;;
819;SDS011;392;48.838;2.322;2022-10-17T01:05:18;7.77;;;7.03;;
819;SDS011;392;48.838;2.322;2022-10-17T01:07:46;8.13;;;7.50;;
819;SDS011;392;48.838;2.322;2022-10-17T01:10:17;8.10;;;7.37;;
819;SDS011;392;48.838;2.322;2022-10-17T01:12:56;7.67;;;7.07;;
819;SDS011;392;48.838;2.322;2022-10-17T01:15:37;7.77;;;7.17;;
819;SDS011;392;48.838;2.322;2022-10-17T01:18:19;8.13;;;7.43;;
819;SDS011;392;48.838;2.322;2022-10-17T01:21:04;7.10;;;6.60;;
819;SDS011;392;48.838;2.322;2022-10-17T01:33:31;7.17;;;6.60;;
819;SDS011;392;48.838;2.322;2022-10-17T01:36:10;7.67;;;7.07;;
819;SDS011;392;48.838;2.322;2022-10-17T01:38:47;7.50;;;6.87;;
819;SDS011;392;48.838;2.322;2022-10-17T01:41:21;7.47;;;6.17;;
819;SDS011;392;48.838;2.322;2022-10-17T01:43:54;7.87;;;7.37;;
819;SDS011;392;48.838;2.322;2022-10-17T01:46:30;7.33;;;6.73;;
819;SDS011;392;48.838;2.322;2022-10-17T01:49:01;7.67;;;6.97;;
819;SDS011;392;48.838;2.322;2022-10-17T01:51:33;6.97;;;6.37;;
819;SDS011;392;48.838;2.322;2022-10-17T01:54:06;7.37;;;6.67;;
819;SDS011;392;48.838;2.322;2022-10-17T01:56:39;7.03;;;6.43;;
819;SDS011;392;48.838;2.322;2022-10-17T01:59:10;7.20;;;6.60;;
819;SDS011;392;48.838;2.322;2022-10-17T02:01:42;7.57;;;6.97;;
819;SDS011;392;48.838;2.322;2022-10-17T02:04:14;8.60;;;6.17;;
819;SDS011;392;48.838;2.322;2022-10-17T02:06:42;9.30;;;7.90;;
819;SDS011;392;48.838;2.322;2022-10-17T02:09:16;6.80;;;6.30;;
819;SDS011;392;48.838;2.322;2022-10-17T02:11:49;7.40;;;6.70;;
819;SDS011;392;48.838;2.322;2022-10-17T02:14:36;6.27;;;5.87;;
819;SDS011;392;48.838;2.322;2022-10-17T02:17:18;7.87;;;6.40;;
819;SDS011;392;48.838;2.322;2022-10-17T02:20:03;8.57;;;7.10;;
819;SDS011;392;48.838;2.322;2022-10-17T02:22:45;10.13;;;7.00;;
819;SDS011;392;48.838;2.322;2022-10-17T02:25:20;7.17;;;6.67;;
819;SDS011;392;48.838;2.322;2022-10-17T02:27:58;7.20;;;6.60;;
819;SDS011;392;48.838;2.322;2022-10-17T02:30:34;7.10;;;6.40;;
819;SDS011;392;48.838;2.322;2022-10-17T02:33:09;7.37;;;6.60;;
819;SDS011;392;48.838;2.322;2022-10-17T02:35:44;7.13;;;6.57;;
819;SDS011;392;48.838;2.322;2022-10-17T02:38:15;7.03;;;6.53;;
819;SDS011;392;48.838;2.322;2022-10-17T02:40:45;7.53;;;6.80;;
819;SDS011;392;48.838;2.322;2022-10-17T02:43:15;6.93;;;6.37;;
819;SDS011;392;48.838;2.322;2022-10-17T02:45:42;7.67;;;7.07;;
819;SDS011;392;48.838;2.322;2022-10-17T02:48:11;6.57;;;6.07;;
819;SDS011;392;48.838;2.322;2022-10-17T02:50:46;6.37;;;5.77;;
819;SDS011;392;48.838;2.322;2022-10-17T02:53:24;6.70;;;6.20;;
819;SDS011;392;48.838;2.322;2022-10-17T02:56:01;7.10;;;6.60;;
819;SDS011;392;48.838;2.322;2022-10-17T02:58:34;6.77;;;6.27;;
819;SDS011;392;48.838;2.322;2022-10-17T03:01:03;7.30;;;6.70;;
819;SDS011;392;48.838;2.322;2022-10-17T03:03:33;7.00;;;6.40;;
819;SDS011;392;48.838;2.322;2022-10-17T03:06:00;8.00;;;6.23;;
819;SDS011;392;48.838;2.322;2022-10-17T03:08:28;7.80;;;7.10;;
819;SDS011;392;48.838;2.322;2022-10-17T03:10:55;7.70;;;6.90;;
819;SDS011;392;48.838;2.322;2022-10-17T03:13:24;7.53;;;6.83;;
819;SDS011;392;48.838;2.322;2022-10-17T03:15:51;7.77;;;7.13;;
819;SDS011;392;48.838;2.322;2022-10-17T03:18:18;6.63;;;6.13;;
819;SDS011;392;48.838;2.322;2022-10-17T03:20:49;7.10;;;6.50;;
819;SDS011;392;48.838;2.322;2022-10-17T03:23:17;6.83;;;6.33;;
819;SDS011;392;48.838;2.322;2022-10-17T03:25:44;7.70;;;6.87;;
819;SDS011;392;48.838;2.322;2022-10-17T03:28:13;6.83;;;6.23;;
819;SDS011;392;48.838;2.322;2022-10-17T03:30:41;7.57;;;6.87;;
819;SDS011;392;48.838;2.322;2022-10-17T03:33:08;7.33;;;6.73;;
819;SDS011;392;48.838;2.322;2022-10-17T03:35:37;7.93;;;6.90;;
819;SDS011;392;48.838;2.322;2022-10-17T03:38:07;8.90;;;7.33;;
819;SDS011;392;48.838;2.322;2022-10-17T03:40:35;6.90;;;6.27;;
819;SDS011;392;48.838;2.322;2022-10-17T03:43:03;7.27;;;6.67;;
819;SDS011;392;48.838;2.322;2022-10-17T03:45:30;8.00;;;7.23;;
819;SDS011;392;48.838;2.322;2022-10-17T03:47:58;7.50;;;6.80;;
819;SDS011;392;48.838;2.322;2022-10-17T03:50:25;7.00;;;6.40;;
819;SDS011;392;48.838;2.322;2022-10-17T03:52:54;6.87;;;6.27;;
819;SDS011;392;48.838;2.322;2022-10-17T03:55:23;6.87;;;6.20;;
819;SDS011;392;48.838;2.322;2022-10-17T03:57:50;6.90;;;6.07;;
819;SDS011;392;48.838;2.322;2022-10-17T04:00:19;6.73;;;6.13;;
819;SDS011;392;48.838;2.322;2022-10-17T04:02:53;6.67;;;5.97;;
819;SDS011;392;48.838;2.322;2022-10-17T04:05:21;6.13;;;5.63;;
819;SDS011;392;48.838;2.322;2022-10-17T04:07:48;7.33;;;6.50;;
819;SDS011;392;48.838;2.322;2022-10-17T04:10:20;8.23;;;6.60;;
819;SDS011;392;48.838;2.322;2022-10-17T04:12:48;6.70;;;6.00;;
819;SDS011;392;48.838;2.322;2022-10-17T04:15:16;7.93;;;7.27;;
819;SDS011;392;48.838;2.322;2022-10-17T04:17:44;7.43;;;6.30;;
819;SDS011;392;48.838;2.322;2022-10-17T04:20:11;6.80;;;6.20;;
819;SDS011;392;48.838;2.322;2022-10-17T04:22:39;6.43;;;5.80;;
819;SDS011;392;48.838;2.322;2022-10-17T04:25:08;6.63;;;6.10;;
819;SDS011;392;48.838;2.322;2022-10-17T04:27:38;7.33;;;6.50;;
819;SDS011;392;48.838;2.322;2022-10-17T04:30:07;8.63;;;7.63;;
819;SDS011;392;48.838;2.322;2022-10-17T04:32:36;6.10;;;5.60;;
819;SDS011;392;48.838;2.322;2022-10-17T04:35:10;6.30;;;5.80;;
819;SDS011;392;48.838;2.322;2022-10-17T04:37:40;7.17;;;6.33;;
819;SDS011;392;48.838;2.322;2022-10-17T04:40:14;7.00;;;6.40;;
819;SDS011;392;48.838;2.322;2022-10-17T04:42:42;7.73;;;6.43;;
819;SDS011;392;48.838;2.322;2022-10-17T04:45:13;7.97;;;6.27;;
819;SDS011;392;48.838;2.322;2022-10-17T04:47:42;7.20;;;6.47;;
819;SDS011;392;48.838;2.322;2022-10-17T04:50:09;7.07;;;6.40;;
819;SDS011;392;48.838;2.322;2022-10-17T04:52:38;7.40;;;6.40;;
819;SDS011;392;48.838;2.322;2022-10-17T04:55:07;6.70;;;6.10;;
819;SDS011;392;48.838;2.322;2022-10-17T04:57:35;6.50;;;5.90;;
819;SDS011;392;48.838;2.322;2022-10-17T05:00:14;6.37;;;5.77;;
819;SDS011;392;48.838;2.322;2022-10-17T05:02:52;6.13;;;5.60;;
819;SDS011;392;48.838;2.322;2022-10-17T05:05:19;7.10;;;6.40;;
819;SDS011;392;48.838;2.322;2022-10-17T05:07:50;6.03;;;5.53;;
819;SDS011;392;48.838;2.322;2022-10-17T05:10:21;7.03;;;6.40;;
819;SDS011;392;48.838;2.322;2022-10-17T05:12:51;7.40;;;6.77;;
819;SDS011;392;48.838;2.322;2022-10-17T05:15:22;6.90;;;6.27;;
819;SDS011;392;48.838;2.322;2022-10-17T05:17:53;7.10;;;6.40;;
819;SDS011;392;48.838;2.322;2022-10-17T05:20:22;7.10;;;5.90;;
819;SDS011;392;48.838;2.322;2022-10-17T05:22:50;6.47;;;5.93;;
819;SDS011;392;48.838;2.322;2022-10-17T05:25:19;9.30;;;6.80;;
819;SDS011;392;48.838;2.322;2022-10-17T05:27:48;6.73;;;5.93;;
819;SDS011;392;48.838;2.322;2022-10-17T05:30:16;7.23;;;6.53;;
819;SDS011;392;48.838;2.322;2022-10-17T05:32:45;7.70;;;7.00;;
819;SDS011;392;48.838;2.322;2022-10-17T05:35:14;7.20;;;6.50;;
819;SDS011;392;48.838;2.322;2022-10-17T05:37:41;7.17;;;6.33;;
819;SDS011;392;48.838;2.322;2022-10-17T05:40:09;7.60;;;6.80;;
819;SDS011;392;48.838;2.322;2022-10-17T05:42:39;7.93;;;7.27;;
819;SDS011;392;48.838;2.322;2022-10-17T05:45:11;7.30;;;6.60;;
819;SDS011;392;48.838;2.322;2022-10-17T05:47:39;7.70;;;6.90;;
819;SDS011;392;48.838;2.322;2022-10-17T05:50:09;6.63;;;6.03;;
819;SDS011;392;48.838;2.322;2022-10-17T05:52:55;8.73;;;7.33;;
819;SDS011;392;48.838;2.322;2022-10-17T05:55:22;7.80;;;7.10;;
819;SDS011;392;48.838;2.322;2022-10-17T05:57:50;7.93;;;7.23;;
819;SDS011;392;48.838;2.322;2022-10-17T06:00:19;8.80;;;6.67;;
819;SDS011;392;48.838;2.322;2022-10-17T06:02:54;7.80;;;7.00;;
819;SDS011;392;48.838;2.322;2022-10-17T06:05:24;7.63;;;6.90;;
819;SDS011;392;48.838;2.322;2022-10-17T06:07:51;7.20;;;6.50;;
819;SDS011;392;48.838;2.322;2022-10-17T06:10:20;7.13;;;6.47;;
819;SDS011;392;48.838;2.322;2022-10-17T06:12:47;7.50;;;6.80;;
819;SDS011;392;48.838;2.322;2022-10-17T06:15:15;7.97;;;7.20;;
819;SDS011;392;48.838;2.322;2022-10-17T06:17:47;8.43;;;7.50;;
819;SDS011;392;48.838;2.322;2022-10-17T06:20:14;7.87;;;7.17;;
819;SDS011;392;48.838;2.322;2022-10-17T06:22:43;7.73;;;7.00;;
819;SDS011;392;48.838;2.322;2022-10-17T06:25:21;7.23;;;6.60;;
819;SDS011;392;48.838;2.322;2022-10-17T06:27:49;7.93;;;7.33;;
819;SDS011;392;48.838;2.322;2022-10-17T06:30:17;7.23;;;6.53;;
819;SDS011;392;48.838;2.322;2022-10-17T06:32:44;8.33;;;7.63;;
819;SDS011;392;48.838;2.322;2022-10-17T06:35:12;6.77;;;6.17;;
819;SDS011;392;48.838;2.322;2022-10-17T06:37:40;7.57;;;6.97;;
819;SDS011;392;48.838;2.322;2022-10-17T06:40:10;7.23;;;6.60;;
819;SDS011;392;48.838;2.322;2022-10-17T06:42:40;7.83;;;6.60;;
819;SDS011;392;48.838;2.322;2022-10-17T06:45:33;11.07;;;7.03;;
819;SDS011;392;48.838;2.322;2022-10-17T06:48:20;7.53;;;6.37;;
819;SDS011;392;48.838;2.322;2022-10-17T06:51:06;7.47;;;6.87;;
819;SDS011;392;48.838;2.322;2022-10-17T06:53:45;7.23;;;6.53;;
819;SDS011;392;48.838;2.322;2022-10-17T06:56:46;6.67;;;6.10;;
819;SDS011;392;48.838;2.322;2022-10-17T06:59:34;8.17;;;7.40;;
819;SDS011;392;48.838;2.322;2022-10-17T07:02:10;7.70;;;7.00;;
819;SDS011;392;48.838;2.322;2022-10-17T07:04:38;7.73;;;7.13;;
819;SDS011;392;48.838;2.322;2022-10-17T07:07:05;6.90;;;6.30;;
819;SDS011;392;48.838;2.322;2022-10-17T07:09:33;7.50;;;6.80;;
819;SDS011;392;48.838;2.322;2022-10-17T07:12:02;7.60;;;6.90;;
819;SDS011;392;48.838;2.322;2022-10-17T07:14:32;8.40;;;7.60;;
819;SDS011;392;48.838;2.322;2022-10-17T07:17:00;9.83;;;7.70;;
819;SDS011;392;48.838;2.322;2022-10-17T07:19:30;7.57;;;6.87;;
819;SDS011;392;48.838;2.322;2022-10-17T07:21:58;7.70;;;7.00;;
819;SDS011;392;48.838;2.322;2022-10-17T07:24:26;8.30;;;7.50;;
819;SDS011;392;48.838;2.322;2022-10-17T07:27:00;9.20;;;8.00;;
819;SDS011;392;48.838;2.322;2022-10-17T07:29:29;7.80;;;7.00;;
819;SDS011;392;48.838;2.322;2022-10-17T07:32:03;10.23;;;7.53;;
819;SDS011;392;48.838;2.322;2022-10-17T07:34:33;7.70;;;7.00;;
819;SDS011;392;48.838;2.322;2022-10-17T07:37:02;7.80;;;7.10;;
819;SDS011;392;48.838;2.322;2022-10-17T07:39:31;7.97;;;6.50;;
819;SDS011;392;48.838;2.322;2022-10-17T07:42:00;11.07;;;8.20;;
819;SDS011;392;48.838;2.322;2022-10-17T07:44:30;7.03;;;6.53;;
819;SDS011;392;48.838;2.322;2022-10-17T07:46:58;7.77;;;6.97;;
819;SDS011;392;48.838;2.322;2022-10-17T07:49:25;8.03;;;7.23;;
819;SDS011;392;48.838;2.322;2022-10-17T07:51:52;8.57;;;7.83;;
819;SDS011;392;48.838;2.322;2022-10-17T07:54:21;8.70;;;7.80;;
819;SDS011;392;48.838;2.322;2022-10-17T07:56:48;7.57;;;6.87;;
819;SDS011;392;48.838;2.322;2022-10-17T07:59:16;8.17;;;7.00;;
819;SDS011;392;48.838;2.322;2022-10-17T08:01:44;8.57;;;6.50;;
819;SDS011;392;48.838;2.322;2022-10-17T08:04:12;8.80;;;7.40;;
819;SDS011;392;48.838;2.322;2022-10-17T08:06:41;9.50;;;7.17;;
819;SDS011;392;48.838;2.322;2022-10-17T08:09:08;8.10;;;7.30;;
819;SDS011;392;48.838;2.322;2022-10-17T08:11:35;7.47;;;6.87;;
819;SDS011;392;48.838;2.322;2022-10-17T08:14:03;8.20;;;7.50;;
819;SDS011;392;48.838;2.322;2022-10-17T08:16:30;7.80;;;7.10;;
819;SDS011;392;48.838;2.322;2022-10-17T08:18:59;8.03;;;7.40;;
819;SDS011;392;48.838;2.322;2022-10-17T08:21:28;12.73;;;7.00;;
819;SDS011;392;48.838;2.322;2022-10-17T08:23:55;7.83;;;6.90;;
819;SDS011;392;48.838;2.322;2022-10-17T08:26:22;9.03;;;6.87;;
819;SDS011;392;48.838;2.322;2022-10-17T08:28:50;7.80;;;7.00;;
819;SDS011;392;48.838;2.322;2022-10-17T08:31:18;7.77;;;7.07;;
819;SDS011;392;48.838;2.322;2022-10-17T08:33:46;7.60;;;6.77;;
819;SDS011;392;48.838;2.322;2022-10-17T08:36:16;7.70;;;7.00;;
819;SDS011;392;48.838;2.322;2022-10-17T08:38:45;7.43;;;6.80;;
819;SDS011;392;48.838;2.322;2022-10-17T08:41:13;7.50;;;6.70;;
819;SDS011;392;48.838;2.322;2022-10-17T08:44:06;8.00;;;7.03;;
819;SDS011;392;48.838;2.322;2022-10-17T08:46:42;7.03;;;6.43;;
819;SDS011;392;48.838;2.322;2022-10-17T08:49:13;7.80;;;6.27;;
819;SDS011;392;48.838;2.322;2022-10-17T08:51:50;7.63;;;6.40;;
819;SDS011;392;48.838;2.322;2022-10-17T08:54:25;7.10;;;6.47;;
819;SDS011;392;48.838;2.322;2022-10-17T08:57:03;6.30;;;5.70;;
819;SDS011;392;48.838;2.322;2022-10-17T08:59:36;7.00;;;6.37;;
819;SDS011;392;48.838;2.322;2022-10-17T09:02:10;7.77;;;6.10;;
819;SDS011;392;48.838;2.322;2022-10-17T09:05:00;7.07;;;6.37;;
819;SDS011;392;48.838;2.322;2022-10-17T09:07:43;6.57;;;6.03;;
819;SDS011;392;48.838;2.322;2022-10-17T09:10:18;7.30;;;6.60;;
819;SDS011;392;48.838;2.322;2022-10-17T09:13:03;6.97;;;5.87;;
819;SDS011;392;48.838;2.322;2022-10-17T09:15:46;8.20;;;6.17;;
819;SDS011;392;48.838;2.322;2022-10-17T09:18:26;6.73;;;6.17;;
819;SDS011;392;48.838;2.322;2022-10-17T09:20:58;6.50;;;5.90;;
819;SDS011;392;48.838;2.322;2022-10-17T09:23:37;6.43;;;5.83;;
819;SDS011;392;48.838;2.322;2022-10-17T09:26:08;7.07;;;6.37;;
819;SDS011;392;48.838;2.322;2022-10-17T09:28:37;7.60;;;6.30;;
819;SDS011;392;48.838;2.322;2022-10-17T09:31:11;6.60;;;6.00;;
819;SDS011;392;48.838;2.322;2022-10-17T09:33:43;9.93;;;6.90;;
819;SDS011;392;48.838;2.322;2022-10-17T09:36:13;8.67;;;7.60;;
819;SDS011;392;48.838;2.322;2022-10-17T09:38:46;8.20;;;7.20;;
819;SDS011;392;48.838;2.322;2022-10-17T09:41:18;7.93;;;7.23;;
819;SDS011;392;48.838;2.322;2022-10-17T09:43:49;7.30;;;6.70;;
819;SDS011;392;48.838;2.322;2022-10-17T09:46:22;9.30;;;7.00;;
819;SDS011;392;48.838;2.322;2022-10-17T09:48:58;15.13;;;7.37;;
819;SDS011;392;48.838;2.322;2022-10-17T09:51:29;8.43;;;7.20;;
819;SDS011;392;48.838;2.322;2022-10-17T09:54:00;8.03;;;6.77;;
819;SDS011;392;48.838;2.322;2022-10-17T09:59:31;10.17;;;6.90;;
819;SDS011;392;48.838;2.322;2022-10-17T10:02:07;6.87;;;6.27;;
819;SDS011;392;48.838;2.322;2022-10-17T10:04:51;10.40;;;8.10;;
819;SDS011;392;48.838;2.322;2022-10-17T10:07:21;9.17;;;8.37;;
819;SDS011;392;48.838;2.322;2022-10-17T10:09:51;8.67;;;7.87;;
819;SDS011;392;48.838;2.322;2022-10-17T10:12:20;9.43;;;8.50;;
819;SDS011;392;48.838;2.322;2022-10-17T10:14:49;8.90;;;7.60;;
819;SDS011;392;48.838;2.322;2022-10-17T10:17:34;11.50;;;8.77;;
819;SDS011;392;48.838;2.322;2022-10-17T10:23:05;9.50;;;7.93;;
819;SDS011;392;48.838;2.322;2022-10-17T10:25:39;9.30;;;7.80;;
819;SDS011;392;48.838;2.322;2022-10-17T10:28:18;9.63;;;8.70;;
819;SDS011;392;48.838;2.322;2022-10-17T10:30:49;10.30;;;9.23;;
819;SDS011;392;48.838;2.322;2022-10-17T10:33:18;9.83;;;8.83;;
819;SDS011;392;48.838;2.322;2022-10-17T10:35:51;10.23;;;9.23;;
819;SDS011;392;48.838;2.322;2022-10-17T10:38:22;10.83;;;9.90;;
819;SDS011;392;48.838;2.322;2022-10-17T10:40:52;13.10;;;10.67;;
819;SDS011;392;48.838;2.322;2022-10-17T10:43:22;12.30;;;11.10;;
819;SDS011;392;48.838;2.322;2022-10-17T10:45:56;12.80;;;11.60;;
819;SDS011;392;48.838;2.322;2022-10-17T10:48:25;11.33;;;9.93;;
819;SDS011;392;48.838;2.322;2022-10-17T10:50:56;11.70;;;10.60;;
819;SDS011;392;48.838;2.322;2022-10-17T10:53:29;11.93;;;10.87;;
819;SDS011;392;48.838;2.322;2022-10-17T10:56:07;12.17;;;10.97;;
819;SDS011;392;48.838;2.322;2022-10-17T10:58:41;12.20;;;11.10;;
819;SDS011;392;48.838;2.322;2022-10-17T11:01:20;12.73;;;11.20;;
819;SDS011;392;48.838;2.322;2022-10-17T11:03:56;12.10;;;10.80;;
819;SDS011;392;48.838;2.322;2022-10-17T11:06:45;11.70;;;10.57;;
819;SDS011;392;48.838;2.322;2022-10-17T11:09:22;11.90;;;10.80;;
819;SDS011;392;48.838;2.322;2022-10-17T11:12:02;14.03;;;12.83;;
819;SDS011;392;48.838;2.322;2022-10-17T11:14:40;12.83;;;11.53;;
819;SDS011;392;48.838;2.322;2022-10-17T11:17:15;12.43;;;11.27;;
819;SDS011;392;48.838;2.322;2022-10-17T11:19:55;12.50;;;11.30;;
819;SDS011;392;48.838;2.322;2022-10-17T11:22:33;13.03;;;11.10;;
819;SDS011;392;48.838;2.322;2022-10-17T11:25:05;13.47;;;12.27;;
819;SDS011;392;48.838;2.322;2022-10-17T11:27:47;13.40;;;12.13;;
819;SDS011;392;48.838;2.322;2022-10-17T11:30:15;15.20;;;12.70;;
819;SDS011;392;48.838;2.322;2022-10-17T11:32:43;11.90;;;10.77;;
819;SDS011;392;48.838;2.322;2022-10-17T11:35:18;11.80;;;10.33;;
819;SDS011;392;48.838;2.322;2022-10-17T11:37:54;11.80;;;10.73;;
819;SDS011;392;48.838;2.322;2022-10-17T11:40:28;12.50;;;11.23;;
819;SDS011;392;48.838;2.322;2022-10-17T11:43:01;12.60;;;11.10;;
819;SDS011;392;48.838;2.322;2022-10-17T11:45:32;12.90;;;11.60;;
819;SDS011;392;48.838;2.322;2022-10-17T11:48:09;11.97;;;10.87;;
819;SDS011;392;48.838;2.322;2022-10-17T11:50:44;15.97;;;12.87;;
819;SDS011;392;48.838;2.322;2022-10-17T11:53:19;13.23;;;11.43;;
819;SDS011;392;48.838;2.322;2022-10-17T11:55:49;13.83;;;11.73;;
819;SDS011;392;48.838;2.322;2022-10-17T11:58:24;13.73;;;12.43;;
819;SDS011;392;48.838;2.322;2022-10-17T12:01:04;14.27;;;12.17;;
819;SDS011;392;48.838;2.322;2022-10-17T12:03:46;13.33;;;12.03;;
819;SDS011;392;48.838;2.322;2022-10-17T12:06:48;16.13;;;11.90;;
819;SDS011;392;48.838;2.322;2022-10-17T12:09:32;12.60;;;11.30;;
819;SDS011;392;48.838;2.322;2022-10-17T12:12:06;14.83;;;11.70;;
819;SDS011;392;48.838;2.322;2022-10-17T12:14:37;13.73;;;11.47;;
819;SDS011;392;48.838;2.322;2022-10-17T12:17:24;11.50;;;10.50;;
819;SDS011;392;48.838;2.322;2022-10-17T12:22:52;12.73;;;11.63;;
819;SDS011;392;48.838;2.322;2022-10-17T12:25:21;12.43;;;11.30;;
819;SDS011;392;48.838;2.322;2022-10-17T12:28:13;11.70;;;10.47;;
819;SDS011;392;48.838;2.322;2022-10-17T12:33:31;12.80;;;11.50;;
819;SDS011;392;48.838;2.322;2022-10-17T12:48:18;14.47;;;10.53;;
819;SDS011;392;48.838;2.322;2022-10-17T12:51:28;12.10;;;10.93;;
819;SDS011;392;48.838;2.322;2022-10-17T12:54:36;13.90;;;11.23;;
819;SDS011;392;48.838;2.322;2022-10-17T12:57:11;11.30;;;10.30;;
819;SDS011;392;48.838;2.322;2022-10-17T12:59:42;10.80;;;9.80;;
819;SDS011;392;48.838;2.322;2022-10-17T13:02:12;11.73;;;10.57;;
819;SDS011;392;48.838;2.322;2022-10-17T13:04:47;14.20;;;11.83;;
819;SDS011;392;48.838;2.322;2022-10-17T13:07:16;13.00;;;11.70;;
819;SDS011;392;48.838;2.322;2022-10-17T13:09:48;12.57;;;11.43;;
819;SDS011;392;48.838;2.322;2022-10-17T13:12:17;12.90;;;11.60;;
819;SDS011;392;48.838;2.322;2022-10-17T13:14:50;13.40;;;12.00;;
819;SDS011;392;48.838;2.322;2022-10-17T13:17:20;14.50;;;13.00;;
819;SDS011;392;48.838;2.322;2022-10-17T13:19:52;12.67;;;11.37;;
819;SDS011;392;48.838;2.322;2022-10-17T13:22:20;13.50;;;12.10;;
819;SDS011;392;48.838;2.322;2022-10-17T13:24:50;13.37;;;12.00;;
819;SDS011;392;48.838;2.322;2022-10-17T13:27:32;14.87;;;12.80;;
819;SDS011;392;48.838;2.322;2022-10-17T13:30:02;13.93;;;12.47;;
819;SDS011;392;48.838;2.322;2022-10-17T13:32:50;14.57;;;12.90;;
819;SDS011;392;48.838;2.322;2022-10-17T13:35:23;14.83;;;13.43;;
819;SDS011;392;48.838;2.322;2022-10-17T13:37:54;15.03;;;13.47;;
819;SDS011;392;48.838;2.322;2022-10-17T13:40:23;15.90;;;13.37;;
819;SDS011;392;48.838;2.322;2022-10-17T13:42:54;14.90;;;13.40;;
819;SDS011;392;48.838;2.322;2022-10-17T13:45:26;12.97;;;11.70;;
819;SDS011;392;48.838;2.322;2022-10-17T13:47:56;17.10;;;15.30;;
819;SDS011;392;48.838;2.322;2022-10-17T13:50:30;15.50;;;12.97;;
819;SDS011;392;48.838;2.322;2022-10-17T13:53:07;13.80;;;12.50;;
819;SDS011;392;48.838;2.322;2022-10-17T13:55:53;13.47;;;12.27;;
819;SDS011;392;48.838;2.322;2022-10-17T13:58:29;15.10;;;13.03;;
819;SDS011;392;48.838;2.322;2022-10-17T14:01:04;13.80;;;12.50;;
819;SDS011;392;48.838;2.322;2022-10-17T14:03:33;13.77;;;12.57;;
819;SDS011;392;48.838;2.322;2022-10-17T14:06:11;13.30;;;11.10;;
819;SDS011;392;48.838;2.322;2022-10-17T14:08:47;12.80;;;11.50;;
819;SDS011;392;48.838;2.322;2022-10-17T14:11:22;13.30;;;11.93;;
819;SDS011;392;48.838;2.322;2022-10-17T14:13:55;13.30;;;12.03;;
819;SDS011;392;48.838;2.322;2022-10-17T14:16:25;20.63;;;18.53;;
819;SDS011;392;48.838;2.322;2022-10-17T14:19:00;16.20;;;14.90;;
819;SDS011;392;48.838;2.322;2022-10-17T14:21:29;16.27;;;14.57;;
819;SDS011;392;48.838;2.322;2022-10-17T14:24:12;13.27;;;12.17;;
819;SDS011;392;48.838;2.322;2022-10-17T14:26:52;12.73;;;11.63;;
819;SDS011;392;48.838;2.322;2022-10-17T14:29:24;15.20;;;13.70;;
819;SDS011;392;48.838;2.322;2022-10-17T14:31:57;13.60;;;12.20;;
819;SDS011;392;48.838;2.322;2022-10-17T14:34:29;20.57;;;18.63;;
819;SDS011;392;48.838;2.322;2022-10-17T14:37:02;30.87;;;28.00;;
819;SDS011;392;48.838;2.322;2022-10-17T14:39:35;27.30;;;24.60;;
819;SDS011;392;48.838;2.322;2022-10-17T14:42:02;35.33;;;32.10;;
819;SDS011;392;48.838;2.322;2022-10-17T14:44:31;16.53;;;15.10;;
819;SDS011;392;48.838;2.322;2022-10-17T14:47:01;15.13;;;13.73;;
819;SDS011;392;48.838;2.322;2022-10-17T14:49:32;23.27;;;20.97;;
819;SDS011;392;48.838;2.322;2022-10-17T14:52:21;35.70;;;32.33;;
819;SDS011;392;48.838;2.322;2022-10-17T14:54:56;14.67;;;13.20;;
819;SDS011;392;48.838;2.322;2022-10-17T14:57:27;11.50;;;10.40;;
819;SDS011;392;48.838;2.322;2022-10-17T15:00:07;10.63;;;9.63;;
819;SDS011;392;48.838;2.322;2022-10-17T15:02:39;16.37;;;14.80;;
819;SDS011;392;48.838;2.322;2022-10-17T15:05:07;16.10;;;14.53;;
819;SDS011;392;48.838;2.322;2022-10-17T15:07:36;28.67;;;25.83;;
819;SDS011;392;48.838;2.322;2022-10-17T15:10:04;18.03;;;16.40;;
819;SDS011;392;48.838;2.322;2022-10-17T15:12:32;14.37;;;12.97;;
819;SDS011;392;48.838;2.322;2022-10-17T15:15:00;11.20;;;10.10;;
819;SDS011;392;48.838;2.322;2022-10-17T15:17:28;10.20;;;9.20;;
819;SDS011;392;48.838;2.322;2022-10-17T15:19:56;10.37;;;9.27;;
819;SDS011;392;48.838;2.322;2022-10-17T15:22:24;11.47;;;9.73;;
819;SDS011;392;48.838;2.322;2022-10-17T15:24:53;11.20;;;10.10;;
819;SDS011;392;48.838;2.322;2022-10-17T15:27:22;13.23;;;11.93;;
819;SDS011;392;48.838;2.322;2022-10-17T15:29:50;16.13;;;14.67;;
819;SDS011;392;48.838;2.322;2022-10-17T15:32:18;10.07;;;9.13;;
819;SDS011;392;48.838;2.322;2022-10-17T15:34:45;11.03;;;9.87;;
819;SDS011;392;48.838;2.322;2022-10-17T15:37:14;9.93;;;8.93;;
819;SDS011;392;48.838;2.322;2022-10-17T15:39:47;11.00;;;9.97;;
819;SDS011;392;48.838;2.322;2022-10-17T15:42:18;11.87;;;10.67;;
819;SDS011;392;48.838;2.322;2022-10-17T15:44:47;12.90;;;11.70;;
819;SDS011;392;48.838;2.322;2022-10-17T15:47:18;12.90;;;11.70;;
819;SDS011;392;48.838;2.322;2022-10-17T15:49:51;11.80;;;10.27;;
819;SDS011;392;48.838;2.322;2022-10-17T15:52:20;13.30;;;12.00;;
819;SDS011;392;48.838;2.322;2022-10-17T15:54:48;12.87;;;11.60;;
819;SDS011;392;48.838;2.322;2022-10-17T15:57:16;11.10;;;10.17;;
819;SDS011;392;48.838;2.322;2022-10-17T15:59:47;12.10;;;11.00;;
819;SDS011;392;48.838;2.322;2022-10-17T16:02:17;17.13;;;15.63;;
819;SDS011;392;48.838;2.322;2022-10-17T16:04:46;13.83;;;12.50;;
819;SDS011;392;48.838;2.322;2022-10-17T16:07:14;14.43;;;10.70;;
819;SDS011;392;48.838;2.322;2022-10-17T16:09:43;14.37;;;12.97;;
819;SDS011;392;48.838;2.322;2022-10-17T16:12:12;12.20;;;10.33;;
819;SDS011;392;48.838;2.322;2022-10-17T16:14:44;11.53;;;10.43;;
819;SDS011;392;48.838;2.322;2022-10-17T16:17:12;12.23;;;11.00;;
819;SDS011;392;48.838;2.322;2022-10-17T16:19:40;18.33;;;15.93;;
819;SDS011;392;48.838;2.322;2022-10-17T16:22:11;12.33;;;10.60;;
819;SDS011;392;48.838;2.322;2022-10-17T16:24:46;11.80;;;10.60;;
819;SDS011;392;48.838;2.322;2022-10-17T16:27:13;11.87;;;10.40;;
819;SDS011;392;48.838;2.322;2022-10-17T16:29:41;12.97;;;11.20;;
819;SDS011;392;48.838;2.322;2022-10-17T16:32:10;11.80;;;10.60;;
819;SDS011;392;48.838;2.322;2022-10-17T16:34:37;13.20;;;11.40;;
819;SDS011;392;48.838;2.322;2022-10-17T16:37:05;13.30;;;12.00;;
819;SDS011;392;48.838;2.322;2022-10-17T16:39:32;12.73;;;11.43;;